Aeroporto :
LOGIN :

Iscrizione | Disclaimer

   EN    FR    IT 

 










Sommario :    VFR   VFR Marginale   IFR   IFR Intensivo   IFR Molto Intensivo
Visibilità : 
Base nubi : 
>= 8 km
>= 3000ft
5 / 8 km
1000 / 3000 ft
1500m / 5 km
500 / 1000 ft
800 / 1500m
200 / 500 ft
< 800m
< 200 ft
Simboli :   Temporali  Nebbia  Neve Forte  Precipitazioni Forti  Vento > 20 kt
SIGMETs :   Varie  Temporali  Ghiacco  Turbolenza  Onda orograficha  Ceneri Vulcaniche






- Altitudine del aeroporto : 63 ft
- Codice IATA : BZM


EHWO - Woensdrecht Airbase

ULTIMO METAR :
  • 271355Z AUTO 23011KT 9999 FEW058 SCT064 OVC070 16/13 Q1012 BLU

METARs OBSOLETI :
  • 271329Z AUTO 24019KT 210V270 9999 -SHRA FEW002 SCT032 BKN061 16/14 Q1012 BLU
  • 271326Z AUTO 24020KT 210V270 9999 -RA FEW003 SCT012 BKN053 17/14 Q1011 GRN BECMG 24015G25KT FEW012
  • 271314Z AUTO 21010KT 160V240 3100 R25/P3000N SHRA FEW006 SCT009 BKN010 17/16 Q1011 YLO TEMPO 21015G31KT 3000 +RA SHRA FEW008 SCT010 BKN015 SCT020CB BECMG FM1330 9999 NSW FEW012
  • 271304Z AUTO 20010G22KT 160V240 4700 -SHRA +DZ FEW007/// SCT011/// BKN014/// 17/16 Q1011 GRN TEMPO 21015G31KT 3000 RA SHRA FEW008 SCT010 BKN015 SCT020CB
  • 271255Z AUTO 19010KT 140V250 7000 DZ FEW007 SCT012 BKN015 17/16 Q1011 GRN TEMPO 21015G31KT 3000 RA SHRA SCT012 SCT018 SCT020CB
  • 271246Z AUTO 19010G20KT 140V220 9000 -RADZ FEW008 SCT013 BKN016 17/16 Q1011 GRN TEMPO 21015G31KT 3000 RA SHRA SCT012 SCT018 SCT020CB
  • 271233Z AUTO 19010G21KT 130V240 8000 DZRA FEW008 SCT019 BKN023 17/16 Q1011 WHT TEMPO 21015G31KT 3000 RA SHRA SCT012 SCT018 SCT020CB
  • 271226Z AUTO 20010KT 150V240 5000 -SHRA FEW011 SCT015 BKN022 17/16 Q1011 WHT TEMPO 21015G31KT 3000 RA SHRA SCT012 SCT018 SCT020CB
  • 271217Z AUTO 20009KT 140V240 6000 -SHRA FEW012 BKN015 BKN018 18/16 Q1011 WHT TEMPO 21015G31KT 3000 RA SHRA SCT012 SCT018 SCT020CB
  • 271201Z AUTO 21013G31KT 180V250 6000 +DZRA FEW017 BKN020 BKN031 18/15 Q1011 WHT TEMPO 21015G31KT 3000 RA SHRA SCT012 SCT018 SCT020CB
  • 271159Z AUTO 21011G31KT 170V250 9999 +DZ SCT019 BKN022 BKN029 19/15 Q1011 WHT TEMPO 19015G31KT 3000 RA SHRA SCT012 SCT018 SCT020CB
  • 271134Z AUTO 19008KT 160V230 9999 FEW015CB BKN021 OVC024 19/15 Q1011 WHT TEMPO 19015G27KT 3000 RA SHRA SCT012 SCT020CB BKN045
  • 271129Z AUTO 19009G19KT 140V250 9999 -RA FEW015CB SCT023 BKN027 BKN030 19/15 Q1011 WHT TEMPO 19015G27KT 3000 RA SHRA SCT012 SCT020CB BKN045
  • 271125Z AUTO 19011G21KT 140V250 9999 -RA SCT023 BKN027 BKN030 19/15 Q1011 WHT TEMPO 19015G27KT 3000 RA SHRA SCT012 SCT020CB BKN045

TAF TAF EHWO
Valido dal 27 a 13 ore il 28 a 01 ore UTC


271219Z 2713/2801 19012G22KT FEW012 BKN020
TEMPO 2713/2715 25014G25KT 4500 -RA SCT012 BKN015
PROB40
TEMPO 2713/2715 27017G30KT 2500 SHRA RA SCT008 BKN012 SCT018CB
BECMG 2714/2717 22007KT



MetMap, La meteo Aeronautica in un colpo d'occhio ! - Copyright ORBIFLY Dicembre 2007 - Disclaimer

ORBIFLY MET'MAP TEAM :

Programmazione e sviluppo : Alexandra Zaïnal
Concezione : Baudouin d'Aumeries
Aiuto per la programmazione : Marc-Olivier Méhu
Supporto tecnico e logistico : Manuel Goepfert
Aiuto per la traduzione : Arnaldo La Scala

Contatto : metmap@orbifly.com




FONTI E CREDITI :

   NOAA